Gazpromneft East — UBOF4 — position and weather

sailwx.info

Track history (hours):
 
Tides and Currents Weather Stations Pressure Air Temp Water Temp Dewpoint Dewpoint Depression Visibility Wind Speed Wind Dir Waves Ship Positions

Gazpromneft East

Last reported at 2016-Sep-28 16:33 UTC. Time now 2016-Sep-28 18:54 UTC.
Position N 59°56' E 028°34'.

Length 79 m; draft 4.3 m.

Type: Tanker. MMSI: 273335320.

Date/timePositionNaut miles runAvg speedWind from/ knotsBaromVisibWave heightAir tempDewpointWater temp
2016-Sep-28 16:33N 59°56' E 028°34'1111.3
2016-Sep-28 15:33N 59°46' E 028°24'5 1.7
2016-Sep-28 12:33N 59°41' E 028°25'0 0.0
2016-Sep-28 08:33N 59°41' E 028°25'0 0.0
2016-Sep-28 03:33N 59°41' E 028°25'0 0.0
2016-Sep-28 02:33N 59°41' E 028°25'0 0.0
2016-Sep-28 01:33N 59°41' E 028°25'10 5.1
2016-Sep-27 23:33N 59°51' E 028°26'4110.3
2016-Sep-27 19:33N 59°57' E 029°47'1 0.2
2016-Sep-27 14:16N 59°56' E 029°46'38 2.0
2016-Sep-26 19:21N 60°18' E 028°45'6 1.6
2016-Sep-26 15:33N 60°12' E 028°46'2110.6
2016-Sep-26 13:33N 59°53' E 028°30'12 5.6
2016-Sep-26 11:24N 59°42' E 028°20'0 0.0
2016-Sep-26 08:15N 59°42' E 028°20'0 0.0
2016-Sep-26 02:33N 59°42' E 028°20'0 0.0
2016-Sep-26 01:33N 59°42' E 028°20'0 0.0
2016-Sep-26 00:33N 59°42' E 028°20'0 0.0
2016-Sep-25 21:24N 59°42' E 028°20'0 0.0
2016-Sep-25 17:30N 59°42' E 028°20'0 0.0
2016-Sep-25 16:33N 59°42' E 028°20'5 5.3
2016-Sep-25 15:33N 59°47' E 028°24'0 0.0
2016-Sep-25 14:33N 59°47' E 028°24'0 0.0
2016-Sep-25 12:33N 59°47' E 028°24'0 0.0
2016-Sep-25 11:33N 59°47' E 028°24'0 0.0
2016-Sep-25 10:33N 59°47' E 028°24'3 2.8
2016-Sep-25 09:33N 59°44' E 028°23'3 1.4
2016-Sep-25 07:33N 59°42' E 028°20'0 0.0
2016-Sep-25 04:33N 59°42' E 028°20'0 0.0
2016-Sep-25 00:32N 59°42' E 028°20'0 0.0
2016-Sep-24 22:32N 59°42' E 028°20'1 1.4
2016-Sep-24 21:33N 59°43' E 028°22'2 1.1
2016-Sep-24 19:33N 59°41' E 028°25'0 0.0
2016-Sep-24 18:32N 59°41' E 028°25'0 0.0
2016-Sep-24 17:33N 59°41' E 028°25'0 0.0
2016-Sep-24 16:33N 59°41' E 028°25'0 0.2
2016-Sep-24 14:33N 59°41' E 028°25'0 0.0
2016-Sep-24 12:33N 59°41' E 028°25'0 0.0
2016-Sep-24 10:33N 59°41' E 028°25'3 2.9
2016-Sep-24 09:33N 59°44' E 028°24'13 2.2
2016-Sep-24 03:26N 59°55' E 028°39'0 0.0
2016-Sep-24 02:26N 59°55' E 028°39'0 0.0
2016-Sep-24 01:26N 59°55' E 028°39'0 0.0
2016-Sep-24 00:29N 59°55' E 028°39'0 0.0
2016-Sep-23 19:32N 59°55' E 028°39'0 0.0
2016-Sep-23 17:17N 59°55' E 028°39'0 0.0
2016-Sep-23 16:23N 59°55' E 028°39'0 0.0
2016-Sep-23 15:32N 59°55' E 028°39'0 0.0
2016-Sep-23 13:20N 59°55' E 028°39'0 0.0
2016-Sep-23 04:32N 59°55' E 028°39'0 0.0
2016-Sep-23 03:32N 59°55' E 028°39'0 0.0
2016-Sep-23 02:32N 59°55' E 028°39'0 0.0
2016-Sep-23 01:23N 59°55' E 028°39'0 0.0
2016-Sep-23 00:23N 59°55' E 028°39'0 0.0
2016-Sep-22 23:26N 59°55' E 028°39'29 9.8
2016-Sep-22 20:28N 60°00' E 029°37'7 0.8
2016-Sep-22 12:25N 59°56' E 029°46'14 1.8
2016-Sep-22 04:33N 59°53' E 030°14'0 0.0
2016-Sep-22 03:33N 59°53' E 030°14'0 0.0
2016-Sep-22 00:33N 59°53' E 030°14'0 0.0
2016-Sep-21 23:33N 59°53' E 030°14'0 0.0
2016-Sep-21 22:33N 59°53' E 030°14'0 0.0
2016-Sep-21 19:33N 59°53' E 030°14'0 0.0
2016-Sep-21 16:33N 59°53' E 030°14'0 0.0
2016-Sep-21 09:33N 59°53' E 030°14'0 0.0
2016-Sep-21 08:33N 59°53' E 030°14'0 0.0
2016-Sep-21 05:33N 59°53' E 030°14'10 5.0
2016-Sep-21 03:33N 59°56' E 029°55'43 2.3
2016-Sep-20 08:32N 60°20' E 028°43'0 0.0
2016-Sep-20 07:28N 60°20' E 028°43'0 0.0
2016-Sep-20 06:10N 60°20' E 028°43'0 0.0
2016-Sep-20 02:25N 60°20' E 028°43'0 0.0
2016-Sep-19 19:33N 60°20' E 028°43'0 0.0
2016-Sep-19 18:25N 60°20' E 028°43'0 0.0
2016-Sep-19 16:21N 60°20' E 028°43'36 5.2
2016-Sep-19 09:30N 59°59' E 029°42'17 8.7
2016-Sep-19 07:33N 59°53' E 030°13'0 0.1
2016-Sep-19 06:33N 59°53' E 030°14'0 0.0
2016-Sep-19 03:33N 59°53' E 030°14'0 0.0
2016-Sep-19 02:33N 59°53' E 030°14'0 0.0
2016-Sep-19 00:33N 59°53' E 030°14'0 0.0
2016-Sep-18 19:33N 59°53' E 030°14'  
Track history (hours):
 
Tides and Currents Weather Stations Pressure Air Temp Water Temp Dewpoint Dewpoint Depression Visibility Wind Speed Wind Dir Waves Ship Positions

Gazpromneft East

Last reported at 2016-Sep-28 16:33 UTC. Time now 2016-Sep-28 18:54 UTC.
Position N 59°56' E 028°34'.

Length 79 m; draft 4.3 m.

Type: Tanker. MMSI: 273335320.

Date/timePositionNaut miles runAvg speedWind from/ knotsBaromVisibWave heightAir tempDewpointWater temp
2016-Sep-28 16:33N 59°56' E 028°34'1111.3
2016-Sep-28 15:33N 59°46' E 028°24'5 1.7
2016-Sep-28 12:33N 59°41' E 028°25'0 0.0
2016-Sep-28 08:33N 59°41' E 028°25'0 0.0
2016-Sep-28 03:33N 59°41' E 028°25'0 0.0
2016-Sep-28 02:33N 59°41' E 028°25'0 0.0
2016-Sep-28 01:33N 59°41' E 028°25'10 5.1
2016-Sep-27 23:33N 59°51' E 028°26'4110.3
2016-Sep-27 19:33N 59°57' E 029°47'1 0.2
2016-Sep-27 14:16N 59°56' E 029°46'38 2.0
2016-Sep-26 19:21N 60°18' E 028°45'6 1.6
2016-Sep-26 15:33N 60°12' E 028°46'2110.6
2016-Sep-26 13:33N 59°53' E 028°30'12 5.6
2016-Sep-26 11:24N 59°42' E 028°20'0 0.0
2016-Sep-26 08:15N 59°42' E 028°20'0 0.0
2016-Sep-26 02:33N 59°42' E 028°20'0 0.0
2016-Sep-26 01:33N 59°42' E 028°20'0 0.0
2016-Sep-26 00:33N 59°42' E 028°20'0 0.0
2016-Sep-25 21:24N 59°42' E 028°20'0 0.0
2016-Sep-25 17:30N 59°42' E 028°20'0 0.0
2016-Sep-25 16:33N 59°42' E 028°20'5 5.3
2016-Sep-25 15:33N 59°47' E 028°24'0 0.0
2016-Sep-25 14:33N 59°47' E 028°24'0 0.0
2016-Sep-25 12:33N 59°47' E 028°24'0 0.0
2016-Sep-25 11:33N 59°47' E 028°24'0 0.0
2016-Sep-25 10:33N 59°47' E 028°24'3 2.8
2016-Sep-25 09:33N 59°44' E 028°23'3 1.4
2016-Sep-25 07:33N 59°42' E 028°20'0 0.0
2016-Sep-25 04:33N 59°42' E 028°20'0 0.0
2016-Sep-25 00:32N 59°42' E 028°20'0 0.0
2016-Sep-24 22:32N 59°42' E 028°20'1 1.4
2016-Sep-24 21:33N 59°43' E 028°22'2 1.1
2016-Sep-24 19:33N 59°41' E 028°25'0 0.0
2016-Sep-24 18:32N 59°41' E 028°25'0 0.0
2016-Sep-24 17:33N 59°41' E 028°25'0 0.0
2016-Sep-24 16:33N 59°41' E 028°25'0 0.2
2016-Sep-24 14:33N 59°41' E 028°25'0 0.0
2016-Sep-24 12:33N 59°41' E 028°25'0 0.0
2016-Sep-24 10:33N 59°41' E 028°25'3 2.9
2016-Sep-24 09:33N 59°44' E 028°24'13 2.2
2016-Sep-24 03:26N 59°55' E 028°39'0 0.0
2016-Sep-24 02:26N 59°55' E 028°39'0 0.0
2016-Sep-24 01:26N 59°55' E 028°39'0 0.0
2016-Sep-24 00:29N 59°55' E 028°39'0 0.0
2016-Sep-23 19:32N 59°55' E 028°39'0 0.0
2016-Sep-23 17:17N 59°55' E 028°39'0 0.0
2016-Sep-23 16:23N 59°55' E 028°39'0 0.0
2016-Sep-23 15:32N 59°55' E 028°39'0 0.0
2016-Sep-23 13:20N 59°55' E 028°39'0 0.0
2016-Sep-23 04:32N 59°55' E 028°39'0 0.0
2016-Sep-23 03:32N 59°55' E 028°39'0 0.0
2016-Sep-23 02:32N 59°55' E 028°39'0 0.0
2016-Sep-23 01:23N 59°55' E 028°39'0 0.0
2016-Sep-23 00:23N 59°55' E 028°39'0 0.0
2016-Sep-22 23:26N 59°55' E 028°39'29 9.8
2016-Sep-22 20:28N 60°00' E 029°37'7 0.8
2016-Sep-22 12:25N 59°56' E 029°46'14 1.8
2016-Sep-22 04:33N 59°53' E 030°14'0 0.0
2016-Sep-22 03:33N 59°53' E 030°14'0 0.0
2016-Sep-22 00:33N 59°53' E 030°14'0 0.0
2016-Sep-21 23:33N 59°53' E 030°14'0 0.0
2016-Sep-21 22:33N 59°53' E 030°14'0 0.0
2016-Sep-21 19:33N 59°53' E 030°14'0 0.0
2016-Sep-21 16:33N 59°53' E 030°14'0 0.0
2016-Sep-21 09:33N 59°53' E 030°14'0 0.0
2016-Sep-21 08:33N 59°53' E 030°14'0 0.0
2016-Sep-21 05:33N 59°53' E 030°14'10 5.0
2016-Sep-21 03:33N 59°56' E 029°55'43 2.3
2016-Sep-20 08:32N 60°20' E 028°43'0 0.0
2016-Sep-20 07:28N 60°20' E 028°43'0 0.0
2016-Sep-20 06:10N 60°20' E 028°43'0 0.0
2016-Sep-20 02:25N 60°20' E 028°43'0 0.0
2016-Sep-19 19:33N 60°20' E 028°43'0 0.0
2016-Sep-19 18:25N 60°20' E 028°43'0 0.0
2016-Sep-19 16:21N 60°20' E 028°43'36 5.2
2016-Sep-19 09:30N 59°59' E 029°42'17 8.7
2016-Sep-19 07:33N 59°53' E 030°13'0 0.1
2016-Sep-19 06:33N 59°53' E 030°14'0 0.0
2016-Sep-19 03:33N 59°53' E 030°14'0 0.0
2016-Sep-19 02:33N 59°53' E 030°14'0 0.0
2016-Sep-19 00:33N 59°53' E 030°14'0 0.0
2016-Sep-18 19:33N 59°53' E 030°14'  

Dump ship's entire track history